Time;durP1;ratioP1;P1;durP2;ratioP2;P2;SDS_P1;SDS_P2;PMS_P1;PMS_P2;Temp;Humidity;BMP_temperature;BMP_pressure;BME280_temperature;BME280_humidity;BME280_pressure;Samples;Min_cycle;Max_cycle;Signal;HPM_P1;HPM_P2
2022/07/13 00:01:14;;;;;;;2.80;0.73;;;24.40;48.10;;;;;;5005043;28;20026;-48
2022/07/13 00:03:39;;;;;;;1.45;0.50;;;24.40;48.10;;;;;;5005350;28;20048;-48
2022/07/13 00:06:05;;;;;;;1.20;0.50;;;24.40;48.10;;;;;;5003863;28;20018;-47
2022/07/13 00:08:31;;;;;;;1.27;0.68;;;24.40;48.10;;;;;;5004497;28;20470;-47
2022/07/13 00:10:57;;;;;;;1.20;0.63;;;24.40;48.00;;;;;;5003081;28;20022;-48
2022/07/13 00:13:22;;;;;;;1.58;0.60;;;24.40;48.10;;;;;;5005421;28;20028;-47
2022/07/13 00:15:48;;;;;;;1.38;0.65;;;24.40;48.10;;;;;;5004144;28;20060;-48
2022/07/13 00:18:14;;;;;;;1.85;0.70;;;24.40;48.00;;;;;;5003974;28;20109;-48
2022/07/13 00:20:40;;;;;;;1.63;0.80;;;24.30;48.00;;;;;;5004226;28;20030;-48
2022/07/13 00:23:06;;;;;;;1.80;0.73;;;24.40;48.00;;;;;;5004598;28;20510;-47
2022/07/13 00:25:31;;;;;;;1.77;0.73;;;24.30;47.90;;;;;;5002827;28;20037;-48
2022/07/13 00:27:57;;;;;;;2.10;0.90;;;24.30;48.00;;;;;;5001857;28;20030;-48
2022/07/13 00:30:23;;;;;;;1.30;0.70;;;24.30;47.90;;;;;;5004135;28;20025;-47
2022/07/13 00:32:49;;;;;;;1.63;0.77;;;24.30;47.90;;;;;;5004399;28;20088;-48
2022/07/13 00:35:14;;;;;;;1.23;0.60;;;24.30;47.90;;;;;;5003906;28;20467;-48
2022/07/13 00:37:40;;;;;;;0.98;0.40;;;24.30;47.90;;;;;;5003808;28;20052;-48
2022/07/13 00:40:07;;;;;;;1.45;0.70;;;24.30;47.90;;;;;;5001790;28;20034;-48
2022/07/13 00:42:32;;;;;;;2.13;0.75;;;24.30;47.90;;;;;;5004246;28;20807;-47
2022/07/13 00:44:58;;;;;;;1.27;0.68;;;24.30;47.90;;;;;;5003664;28;20029;-47
2022/07/13 00:47:29;;;;;;;1.13;0.60;;;24.30;48.00;;;;;;5004131;28;20044;-47
2022/07/13 00:49:55;;;;;;;1.13;0.70;;;24.30;47.90;;;;;;5003897;28;20026;-47
2022/07/13 00:52:21;;;;;;;2.20;0.80;;;24.30;48.00;;;;;;5003824;28;20123;-47
2022/07/13 00:54:46;;;;;;;1.17;0.68;;;24.30;47.90;;;;;;5002639;28;20025;-46
2022/07/13 00:57:14;;;;;;;2.15;0.95;;;24.30;47.90;;;;;;5003157;28;20042;-47
2022/07/13 00:59:40;;;;;;;2.05;0.80;;;24.30;47.90;;;;;;5002687;28;20022;-48
2022/07/13 01:02:06;;;;;;;1.60;0.73;;;24.20;47.80;;;;;;5003635;28;20029;-48
2022/07/13 01:04:32;;;;;;;1.13;0.68;;;24.30;47.90;;;;;;5004039;28;20371;-48
2022/07/13 01:06:58;;;;;;;0.80;0.43;;;24.30;47.90;;;;;;5003504;28;20108;-48
2022/07/13 01:09:26;;;;;;;1.35;0.70;;;24.20;48.40;;;;;;5002265;28;20018;-47
2022/07/13 01:11:53;;;;;;;2.30;1.05;;;24.30;47.80;;;;;;5003378;28;20021;-48
2022/07/13 01:14:19;;;;;;;1.88;0.90;;;24.30;47.80;;;;;;5003371;28;20018;-48
2022/07/13 01:16:45;;;;;;;1.63;0.80;;;24.20;47.60;;;;;;5002578;28;20026;-48
2022/07/13 01:19:12;;;;;;;1.55;0.60;;;24.20;47.60;;;;;;5004752;28;20064;-48
2022/07/13 01:21:42;;;;;;;2.15;0.95;;;24.20;47.60;;;;;;5003578;28;20513;-47
2022/07/13 01:24:08;;;;;;;1.65;0.60;;;24.20;47.50;;;;;;4998705;28;20033;-47
2022/07/13 01:26:34;;;;;;;1.35;0.73;;;24.20;47.60;;;;;;5003210;28;20485;-48
2022/07/13 01:28:59;;;;;;;1.85;0.73;;;24.20;47.50;;;;;;5003830;28;20029;-48
2022/07/13 01:31:36;;;;;;;1.67;0.80;;;24.20;47.50;;;;;;5003470;28;20014;-47
2022/07/13 01:34:02;;;;;;;1.55;0.50;;;24.20;47.60;;;;;;5003099;28;20049;-48
2022/07/13 01:36:28;;;;;;;2.22;0.70;;;24.20;47.60;;;;;;5003068;28;20026;-47
2022/07/13 01:38:54;;;;;;;1.95;0.90;;;24.20;47.60;;;;;;5002294;28;20030;-47
2022/07/13 01:41:21;;;;;;;1.58;0.70;;;24.20;47.50;;;;;;5002863;28;20073;-47
2022/07/13 01:43:48;;;;;;;1.45;0.70;;;24.20;47.50;;;;;;5003048;28;20599;-48
2022/07/13 01:46:14;;;;;;;1.90;1.00;;;24.20;47.40;;;;;;5002328;28;20670;-46
2022/07/13 01:48:40;;;;;;;1.60;0.73;;;24.20;47.50;;;;;;5003802;28;20084;-47
2022/07/13 01:51:06;;;;;;;2.17;0.75;;;24.20;47.50;;;;;;5003205;28;20018;-47
2022/07/13 01:53:32;;;;;;;1.67;0.85;;;24.20;47.50;;;;;;5002874;28;20032;-48
2022/07/13 01:55:57;;;;;;;2.38;0.77;;;24.20;47.40;;;;;;5000713;28;20130;-48
2022/07/13 01:58:23;;;;;;;1.67;0.80;;;24.20;47.40;;;;;;5002758;28;20441;-48
2022/07/13 02:00:48;;;;;;;1.98;0.80;;;24.20;47.40;;;;;;5002869;28;20060;-50
2022/07/13 02:03:14;;;;;;;1.60;0.70;;;24.20;47.30;;;;;;5003021;28;20690;-48
2022/07/13 02:05:40;;;;;;;3.70;1.17;;;24.20;47.30;;;;;;5002867;28;20405;-47
2022/07/13 02:08:06;;;;;;;1.42;0.88;;;24.20;47.30;;;;;;5002279;28;20022;-53
2022/07/13 02:10:35;;;;;;;2.17;0.90;;;24.10;47.20;;;;;;4999166;28;20042;-48
2022/07/13 02:13:05;;;;;;;1.38;0.70;;;24.10;47.20;;;;;;5002580;28;20068;-48
2022/07/13 02:15:31;;;;;;;1.25;0.80;;;24.10;47.20;;;;;;5001454;28;20026;-48
2022/07/13 02:17:56;;;;;;;2.33;1.05;;;24.10;47.10;;;;;;5003035;28;20052;-48
2022/07/13 02:20:22;;;;;;;1.58;0.82;;;24.10;47.10;;;;;;5002457;28;20087;-47
2022/07/13 02:22:48;;;;;;;1.20;0.60;;;24.20;47.70;;;;;;5003170;28;20056;-48
2022/07/13 02:25:14;;;;;;;1.48;0.75;;;24.20;47.10;;;;;;4999800;28;20029;-46
2022/07/13 02:27:40;;;;;;;1.40;0.77;;;24.10;47.10;;;;;;5003546;28;20029;-48
2022/07/13 02:30:07;;;;;;;1.98;0.88;;;24.10;47.10;;;;;;5002141;28;20022;-46
2022/07/13 02:32:34;;;;;;;1.05;0.70;;;24.10;47.10;;;;;;5003052;28;20088;-47
2022/07/13 02:34:59;;;;;;;1.50;0.77;;;24.10;47.10;;;;;;5002839;28;20025;-48
2022/07/13 02:37:25;;;;;;;1.48;0.80;;;24.10;47.20;;;;;;5002948;28;20032;-47
2022/07/13 02:39:53;;;;;;;2.50;0.88;;;24.10;47.20;;;;;;5001047;28;20054;-48
2022/07/13 02:42:19;;;;;;;1.98;0.98;;;24.10;47.20;;;;;;5000721;28;20065;-47
2022/07/13 02:44:44;;;;;;;1.83;1.00;;;24.10;47.20;;;;;;5003133;28;20029;-48
2022/07/13 02:47:10;;;;;;;1.50;0.70;;;24.10;47.20;;;;;;5002927;28;20013;-46
2022/07/13 02:49:36;;;;;;;2.25;0.88;;;24.10;47.20;;;;;;5002990;28;20025;-47
2022/07/13 02:52:01;;;;;;;1.73;0.80;;;24.10;47.20;;;;;;5002817;28;20021;-47
2022/07/13 02:54:27;;;;;;;1.83;0.85;;;24.10;47.10;;;;;;5005328;28;20108;-47
2022/07/13 02:56:55;;;;;;;1.45;0.77;;;24.10;47.10;;;;;;5007434;28;20033;-47
2022/07/13 02:59:21;;;;;;;1.27;0.60;;;24.10;47.00;;;;;;5005342;28;20525;-49
2022/07/13 03:01:47;;;;;;;1.33;0.70;;;24.10;47.00;;;;;;5006432;28;20288;-47
2022/07/13 03:04:12;;;;;;;1.33;0.73;;;24.10;46.90;;;;;;5006378;28;20038;-47
2022/07/13 03:06:38;;;;;;;1.65;0.70;;;24.10;46.90;;;;;;5006662;28;20377;-47
2022/07/13 03:09:03;;;;;;;1.65;0.82;;;24.10;46.90;;;;;;5006390;28;20847;-47
2022/07/13 03:11:29;;;;;;;1.40;0.82;;;24.10;46.80;;;;;;5005152;28;20028;-47
2022/07/13 03:13:55;;;;;;;1.80;0.90;;;24.10;46.90;;;;;;5006016;28;20018;-48
2022/07/13 03:16:20;;;;;;;2.20;0.80;;;24.10;46.70;;;;;;5005668;28;20022;-48
2022/07/13 03:18:46;;;;;;;1.45;0.75;;;24.10;46.80;;;;;;5006526;28;20025;-47
2022/07/13 03:21:12;;;;;;;1.23;0.75;;;24.10;46.80;;;;;;5006361;28;20050;-48
2022/07/13 03:23:38;;;;;;;1.52;0.80;;;24.10;46.90;;;;;;5006421;28;20713;-47
2022/07/13 03:26:04;;;;;;;1.73;0.90;;;24.10;47.70;;;;;;5003904;28;20026;-47
2022/07/13 03:28:29;;;;;;;1.00;0.60;;;24.10;46.90;;;;;;5006581;28;20363;-46
2022/07/13 03:30:55;;;;;;;1.60;0.80;;;24.10;47.00;;;;;;5004410;28;20014;-47
2022/07/13 03:33:20;;;;;;;1.80;0.80;;;24.10;46.90;;;;;;5006130;28;20022;-48
2022/07/13 03:35:46;;;;;;;1.15;0.60;;;24.00;46.80;;;;;;5005905;28;20546;-47
2022/07/13 03:38:12;;;;;;;1.13;0.60;;;24.00;46.80;;;;;;5005455;28;20262;-47
2022/07/13 03:40:37;;;;;;;0.93;0.63;;;24.10;46.80;;;;;;5004410;28;20249;-48
2022/07/13 03:43:03;;;;;;;1.75;0.70;;;24.00;46.60;;;;;;5005698;28;20104;-48
2022/07/13 03:45:28;;;;;;;1.05;0.57;;;24.00;46.50;;;;;;5005915;28;20068;-47
2022/07/13 03:47:54;;;;;;;1.00;0.70;;;24.00;46.50;;;;;;5003910;28;20450;-47
2022/07/13 03:50:20;;;;;;;1.10;0.60;;;24.10;46.70;;;;;;5006206;28;20163;-47
2022/07/13 03:52:45;;;;;;;1.42;0.80;;;24.00;46.50;;;;;;5006000;28;20141;-48
2022/07/13 03:55:12;;;;;;;1.67;0.70;;;24.00;46.60;;;;;;5003355;28;20041;-47
2022/07/13 03:57:38;;;;;;;1.42;0.70;;;24.00;46.60;;;;;;5005701;28;20056;-48
2022/07/13 04:00:04;;;;;;;1.30;0.73;;;24.00;46.50;;;;;;5005337;28;20657;-48
2022/07/13 04:02:30;;;;;;;2.40;0.80;;;24.00;46.50;;;;;;5004762;28;20030;-48
2022/07/13 04:04:56;;;;;;;1.23;0.70;;;24.00;46.50;;;;;;5004903;28;20028;-47
2022/07/13 04:07:21;;;;;;;1.30;0.65;;;24.00;46.50;;;;;;5005628;28;20026;-47
2022/07/13 04:09:47;;;;;;;1.58;0.73;;;24.00;46.40;;;;;;5003401;28;20088;-47
2022/07/13 04:12:12;;;;;;;1.77;0.82;;;24.00;46.50;;;;;;5005133;28;20030;-47
2022/07/13 04:14:38;;;;;;;1.20;0.75;;;24.00;46.50;;;;;;5006020;28;20102;-48
2022/07/13 04:17:04;;;;;;;1.90;0.73;;;24.00;46.50;;;;;;5005368;28;20028;-47
2022/07/13 04:19:29;;;;;;;1.40;0.70;;;24.00;46.60;;;;;;5001999;28;20692;-47
2022/07/13 04:21:55;;;;;;;1.67;0.93;;;24.00;46.60;;;;;;5003359;28;20390;-47
2022/07/13 04:24:22;;;;;;;2.30;1.00;;;24.00;46.40;;;;;;5003760;28;20486;-47
2022/07/13 04:26:47;;;;;;;1.20;0.60;;;24.00;46.50;;;;;;5006549;28;20030;-46
2022/07/13 04:29:13;;;;;;;1.23;0.60;;;24.00;46.40;;;;;;5004942;28;20104;-48
2022/07/13 04:31:38;;;;;;;1.23;0.60;;;24.00;46.40;;;;;;5020017;28;20029;-48
2022/07/13 04:34:04;;;;;;;1.38;0.70;;;24.00;46.40;;;;;;5005403;28;20101;-48
2022/07/13 04:36:30;;;;;;;1.45;0.70;;;24.00;46.30;;;;;;5004220;28;20474;-47
2022/07/13 04:38:55;;;;;;;1.80;0.70;;;24.00;46.40;;;;;;5004357;28;20029;-48
2022/07/13 04:41:21;;;;;;;1.73;0.70;;;24.00;46.30;;;;;;5002026;28;20721;-48
2022/07/13 04:43:47;;;;;;;1.52;0.70;;;24.00;46.20;;;;;;5005065;28;20030;-48
2022/07/13 04:46:13;;;;;;;0.95;0.52;;;24.00;46.30;;;;;;5004694;28;20026;-47
2022/07/13 04:48:38;;;;;;;0.90;0.57;;;24.00;46.30;;;;;;5004984;28;20280;-48
2022/07/13 04:51:05;;;;;;;1.42;0.70;;;24.00;46.30;;;;;;5004690;28;20529;-47
2022/07/13 04:53:31;;;;;;;1.27;0.68;;;24.00;46.90;;;;;;5004136;28;20029;-47
2022/07/13 04:55:56;;;;;;;1.40;0.77;;;24.00;46.30;;;;;;5003200;28;20046;-47
2022/07/13 04:58:22;;;;;;;2.15;0.65;;;24.00;46.30;;;;;;5004696;28;20100;-47
2022/07/13 05:00:48;;;;;;;1.05;0.60;;;24.00;46.30;;;;;;5002558;28;20038;-47
2022/07/13 05:03:14;;;;;;;1.13;0.70;;;24.00;46.30;;;;;;5003586;28;20040;-48
2022/07/13 05:05:39;;;;;;;0.75;0.47;;;24.00;46.30;;;;;;5005055;28;20072;-48
2022/07/13 05:08:05;;;;;;;1.70;0.80;;;24.00;46.30;;;;;;5003969;28;20029;-47
2022/07/13 05:10:31;;;;;;;1.58;0.73;;;23.90;46.30;;;;;;5002680;28;20030;-47
2022/07/13 05:12:57;;;;;;;1.50;0.77;;;24.00;46.20;;;;;;5003126;28;20662;-47
2022/07/13 05:15:23;;;;;;;1.20;0.60;;;24.00;46.20;;;;;;5015463;28;20105;-48
2022/07/13 05:17:48;;;;;;;1.55;0.80;;;24.00;45.80;;;;;;5003441;28;20030;-48
2022/07/13 05:20:14;;;;;;;2.70;1.10;;;24.00;46.10;;;;;;5003724;28;20056;-48
2022/07/13 05:22:40;;;;;;;2.13;0.90;;;23.90;46.50;;;;;;5003218;28;20033;-48
2022/07/13 05:25:06;;;;;;;1.83;0.98;;;23.90;46.30;;;;;;5000963;28;20030;-47
2022/07/13 05:27:31;;;;;;;2.05;0.80;;;23.90;46.00;;;;;;5004222;28;20026;-47
2022/07/13 05:29:57;;;;;;;3.13;1.00;;;23.90;46.40;;;;;;5002977;28;20360;-47
2022/07/13 05:32:23;;;;;;;3.30;1.42;;;24.00;46.30;;;;;;5003390;28;20112;-48
2022/07/13 05:34:49;;;;;;;1.77;0.90;;;24.00;46.50;;;;;;5002987;28;20029;-48
2022/07/13 05:37:15;;;;;;;2.25;0.93;;;24.00;46.40;;;;;;5002633;28;20048;-48
2022/07/13 05:39:45;;;;;;;1.35;0.85;;;24.00;46.30;;;;;;5000952;28;20038;-48
2022/07/13 05:42:12;;;;;;;2.70;1.00;;;24.00;46.30;;;;;;5003181;28;20044;-47
2022/07/13 05:44:38;;;;;;;2.78;1.00;;;24.10;46.50;;;;;;5003019;28;20112;-48
2022/07/13 05:47:04;;;;;;;2.25;0.85;;;24.10;46.20;;;;;;5002254;28;20028;-48
2022/07/13 05:49:30;;;;;;;1.70;0.90;;;24.10;46.10;;;;;;5001805;28;20026;-48
2022/07/13 05:51:56;;;;;;;2.40;0.80;;;24.10;46.30;;;;;;5017442;28;20036;-47
2022/07/13 05:54:22;;;;;;;2.75;1.25;;;24.10;46.50;;;;;;5000273;28;20449;-49
2022/07/13 05:56:48;;;;;;;5.43;1.17;;;24.20;46.40;;;;;;4997274;28;20064;-47
2022/07/13 05:59:13;;;;;;;2.67;1.08;;;24.20;46.60;;;;;;5002845;28;20038;-48
2022/07/13 06:01:39;;;;;;;2.58;0.98;;;24.20;46.70;;;;;;4997854;28;20041;-48
2022/07/13 06:04:05;;;;;;;2.63;1.33;;;24.20;46.60;;;;;;4998329;28;20029;-47
2022/07/13 06:06:30;;;;;;;1.70;0.70;;;24.20;46.60;;;;;;4994289;28;20073;-48
2022/07/13 06:08:56;;;;;;;2.85;0.90;;;24.20;46.80;;;;;;4996605;28;20131;-50
2022/07/13 06:11:22;;;;;;;2.30;0.95;;;24.20;46.90;;;;;;4999080;28;20022;-49
2022/07/13 06:13:47;;;;;;;4.72;1.40;;;24.20;46.80;;;;;;4996513;28;20802;-48
2022/07/13 06:16:13;;;;;;;3.08;1.20;;;24.20;46.40;;;;;;4997661;28;20136;-48
2022/07/13 06:18:38;;;;;;;2.65;1.00;;;24.20;46.20;;;;;;4999841;28;20036;-49
2022/07/13 06:21:04;;;;;;;2.08;1.00;;;24.20;46.00;;;;;;5000285;28;20034;-49
2022/07/13 06:23:30;;;;;;;1.63;0.80;;;24.20;45.70;;;;;;5000935;28;20033;-45
2022/07/13 06:25:56;;;;;;;2.38;0.90;;;24.10;44.80;;;;;;4998515;28;20310;-48
2022/07/13 06:28:21;;;;;;;3.75;1.25;;;24.10;45.70;;;;;;5001128;28;20054;-48
2022/07/13 06:30:47;;;;;;;7.15;1.60;;;24.10;45.60;;;;;;4999831;28;21249;-49
2022/07/13 06:33:13;;;;;;;6.68;1.75;;;24.10;46.00;;;;;;5001206;28;20030;-49
2022/07/13 06:35:38;;;;;;;6.20;1.35;;;24.10;45.20;;;;;;4999808;28;20029;-49
2022/07/13 06:38:04;;;;;;;5.03;2.05;;;24.00;44.20;;;;;;5001500;28;20486;-50
2022/07/13 06:40:30;;;;;;;5.15;1.40;;;24.00;44.80;;;;;;4997540;28;20029;-48
2022/07/13 06:42:55;;;;;;;4.53;1.38;;;24.00;45.30;;;;;;5000721;28;20025;-47
2022/07/13 06:45:22;;;;;;;3.70;1.50;;;24.00;44.70;;;;;;4999497;28;20032;-47
2022/07/13 06:47:48;;;;;;;2.88;1.20;;;24.00;44.70;;;;;;5000610;28;20017;-47
2022/07/13 06:50:14;;;;;;;6.60;1.83;;;24.00;44.50;;;;;;5000025;28;20891;-46
2022/07/13 06:52:40;;;;;;;3.42;1.20;;;23.90;45.10;;;;;;4999558;28;20555;-46
2022/07/13 06:55:08;;;;;;;4.20;1.17;;;23.90;45.00;;;;;;4998432;28;20494;-46
2022/07/13 06:57:34;;;;;;;3.13;1.20;;;23.90;44.40;;;;;;5001248;28;20022;-45
2022/07/13 06:59:59;;;;;;;4.07;1.30;;;23.90;44.50;;;;;;5001502;28;20517;-46
2022/07/13 07:02:25;;;;;;;4.15;1.23;;;23.80;44.60;;;;;;5001391;28;20026;-47
2022/07/13 07:04:51;;;;;;;2.22;1.20;;;23.80;44.70;;;;;;5001292;28;20040;-50
2022/07/13 07:07:17;;;;;;;2.60;1.20;;;23.70;44.50;;;;;;5001653;28;20084;-48
2022/07/13 07:09:42;;;;;;;3.38;1.13;;;23.70;44.10;;;;;;5001797;28;20018;-47
2022/07/13 07:12:08;;;;;;;3.92;1.23;;;23.70;44.60;;;;;;5001785;28;20410;-50
2022/07/13 07:14:34;;;;;;;2.20;1.08;;;23.70;44.50;;;;;;5001933;28;20034;-50
2022/07/13 07:17:03;;;;;;;2.00;1.08;;;23.70;45.00;;;;;;5002054;28;20105;-48
2022/07/13 07:19:29;;;;;;;3.35;1.48;;;23.60;44.30;;;;;;5001357;28;20022;-49
2022/07/13 07:21:55;;;;;;;6.57;1.83;;;23.60;44.60;;;;;;5001924;28;20045;-49
2022/07/13 07:24:21;;;;;;;5.00;1.77;;;23.60;45.00;;;;;;5000919;28;20132;-49
2022/07/13 07:26:51;;;;;;;7.40;2.10;;;23.60;44.90;;;;;;5011428;28;20085;-49
2022/07/13 07:29:17;;;;;;;3.95;1.55;;;23.60;45.20;;;;;;5021206;28;20021;-48
2022/07/13 07:31:42;;;;;;;4.80;1.80;;;23.60;45.40;;;;;;5004579;28;20655;-48
2022/07/13 07:34:08;;;;;;;7.05;1.92;;;23.60;45.50;;;;;;5001867;28;20125;-47
2022/07/13 07:36:34;;;;;;;6.10;1.75;;;23.60;45.70;;;;;;5001460;28;20029;-48
2022/07/13 07:39:00;;;;;;;4.85;1.67;;;23.70;45.50;;;;;;5003418;28;20087;-47
2022/07/13 07:41:25;;;;;;;3.08;1.27;;;23.70;45.00;;;;;;5004439;28;20032;-48
2022/07/13 07:43:51;;;;;;;3.88;1.48;;;23.70;45.20;;;;;;5004998;28;20025;-48
2022/07/13 07:46:16;;;;;;;4.63;1.60;;;23.70;45.20;;;;;;5005036;28;20037;-48
2022/07/13 07:48:42;;;;;;;3.40;1.50;;;23.70;45.70;;;;;;4998140;28;20022;-49
2022/07/13 07:51:08;;;;;;;3.25;1.25;;;23.70;45.40;;;;;;5002785;28;20045;-49
2022/07/13 07:53:34;;;;;;;3.03;1.50;;;23.70;45.50;;;;;;5002001;28;20049;-47
2022/07/13 07:55:59;;;;;;;3.42;1.20;;;23.70;45.30;;;;;;5002714;28;20029;-48
2022/07/13 07:58:26;;;;;;;3.20;1.33;;;23.70;45.50;;;;;;5001464;28;20752;-46
2022/07/13 08:00:51;;;;;;;2.50;1.20;;;23.70;45.30;;;;;;5003404;28;20163;-47
2022/07/13 08:03:17;;;;;;;4.13;1.60;;;23.70;45.70;;;;;;5003331;28;20116;-47
2022/07/13 08:05:47;;;;;;;3.47;1.48;;;23.70;45.90;;;;;;4996365;28;20853;-46
2022/07/13 08:08:12;;;;;;;2.97;1.25;;;23.70;45.80;;;;;;4992271;28;20146;-46
2022/07/13 08:10:38;;;;;;;2.33;1.13;;;23.70;45.60;;;;;;4999229;28;20026;-47
2022/07/13 08:13:04;;;;;;;3.55;1.50;;;23.70;45.20;;;;;;5003640;28;20065;-47
2022/07/13 08:15:31;;;;;;;2.42;1.20;;;23.80;45.10;;;;;;5004333;28;20038;-48
2022/07/13 08:17:57;;;;;;;3.33;1.10;;;23.80;45.00;;;;;;5005214;28;20053;-46
2022/07/13 08:20:23;;;;;;;3.00;1.42;;;23.80;46.70;;;;;;5002701;28;20401;-47
2022/07/13 08:22:50;;;;;;;2.67;1.40;;;23.90;45.00;;;;;;5004862;28;20037;-47
2022/07/13 08:25:15;;;;;;;3.97;1.40;;;23.90;44.70;;;;;;5003955;28;20115;-47
2022/07/13 08:27:41;;;;;;;2.30;1.10;;;23.90;44.50;;;;;;5008906;28;20105;-49
2022/07/13 08:30:08;;;;;;;3.13;1.42;;;23.90;44.40;;;;;;5000479;28;20041;-48
2022/07/13 08:32:33;;;;;;;2.30;1.15;;;23.80;44.40;;;;;;5002917;28;20041;-48
2022/07/13 08:40:28;;;;;;;5.10;1.33;;;23.90;45.30;;;;;;5002635;28;20041;-48
2022/07/13 08:42:53;;;;;;;3.30;1.30;;;23.90;45.00;;;;;;5003040;28;20514;-48
2022/07/13 08:45:19;;;;;;;2.17;1.20;;;24.00;44.80;;;;;;5003244;28;20105;-48
2022/07/13 08:47:47;;;;;;;2.20;0.95;;;24.00;44.80;;;;;;5003592;28;20471;-48
2022/07/13 08:50:13;;;;;;;4.78;1.38;;;24.00;44.70;;;;;;5003357;28;20034;-48
2022/07/13 08:52:42;;;;;;;2.92;1.15;;;24.00;44.70;;;;;;5003729;28;20397;-49
2022/07/13 08:55:08;;;;;;;2.88;1.52;;;24.00;44.70;;;;;;5003532;28;20633;-49
2022/07/13 08:57:36;;;;;;;5.53;1.38;;;24.00;44.70;;;;;;5020735;28;20065;-49
2022/07/13 09:00:08;;;;;;;2.78;1.15;;;24.10;44.70;;;;;;5013753;28;20044;-48
2022/07/13 09:02:34;;;;;;;1.97;1.00;;;24.10;44.60;;;;;;5000992;28;20061;-49
2022/07/13 09:05:05;;;;;;;1.85;1.00;;;24.10;44.40;;;;;;4999002;28;20057;-49
2022/07/13 09:07:31;;;;;;;2.70;1.00;;;24.10;44.60;;;;;;5001776;28;20592;-49
2022/07/13 09:09:58;;;;;;;2.17;1.02;;;24.20;44.00;;;;;;4997373;28;20593;-49
2022/07/13 09:12:25;;;;;;;2.53;1.20;;;24.20;44.40;;;;;;4997436;28;20057;-48
2022/07/13 09:15:00;;;;;;;3.10;1.40;;;24.20;44.40;;;;;;5002141;28;20028;-48
2022/07/13 09:17:33;;;;;;;3.58;1.13;;;24.20;44.50;;;;;;5002172;28;20041;-49
2022/07/13 09:20:20;;;;;;;3.58;1.10;;;24.20;44.00;;;;;;4998097;28;20057;-49
2022/07/13 09:22:51;;;;;;;3.58;1.42;;;24.20;44.00;;;;;;5001980;28;20560;-49
2022/07/13 09:25:29;;;;;;;3.20;1.15;;;24.30;43.70;;;;;;5002359;28;20113;-49
2022/07/13 09:27:55;;;;;;;4.10;1.20;;;24.30;43.70;;;;;;4996162;28;20093;-50
2022/07/13 09:30:23;;;;;;;3.53;1.10;;;24.30;43.70;;;;;;5002958;28;20121;-48
2022/07/13 09:32:50;;;;;;;8.63;2.47;;;24.30;44.40;;;;;;5002326;28;20034;-49
2022/07/13 09:35:16;;;;;;;9.95;3.10;;;24.40;45.20;;;;;;5002886;28;20025;-48
2022/07/13 09:37:42;;;;;;;12.70;3.70;;;24.40;45.00;;;;;;5003355;28;20030;-47
2022/07/13 09:40:10;;;;;;;8.77;2.72;;;24.50;45.40;;;;;;5002504;28;20087;-48
2022/07/13 09:42:40;;;;;;;15.80;4.35;;;24.50;46.30;;;;;;5002953;28;20733;-49
2022/07/13 09:47:54;;;;;;;5.32;1.20;;;24.70;44.20;;;;;;5003690;28;20216;-47
2022/07/13 09:50:22;;;;;;;3.90;1.23;;;24.70;43.90;;;;;;5003197;28;20434;-46
2022/07/13 09:52:49;;;;;;;7.22;1.92;;;24.70;46.50;;;;;;5003432;28;20056;-48
2022/07/13 09:55:19;;;;;;;6.72;1.70;;;24.70;46.50;;;;;;4995831;28;20030;-48
2022/07/13 09:57:48;;;;;;;8.20;2.45;;;24.70;45.40;;;;;;5007901;28;20142;-48
2022/07/13 10:00:17;;;;;;;3.50;1.42;;;24.70;46.40;;;;;;4993822;28;20045;-48
2022/07/13 10:02:45;;;;;;;3.25;1.40;;;24.80;44.30;;;;;;4991196;28;20034;-49
2022/07/13 10:05:13;;;;;;;2.95;1.33;;;24.80;43.90;;;;;;4998210;28;20022;-48
2022/07/13 10:07:39;;;;;;;3.00;1.13;;;24.80;44.10;;;;;;5016597;28;20022;-47
2022/07/13 10:10:06;;;;;;;2.70;1.08;;;24.80;44.00;;;;;;5001597;28;20471;-48
2022/07/13 10:12:36;;;;;;;2.42;1.17;;;24.90;44.30;;;;;;5002338;28;20065;-49
2022/07/13 10:15:03;;;;;;;2.80;1.05;;;24.90;45.20;;;;;;5002786;28;20081;-46
2022/07/13 10:17:29;;;;;;;1.92;0.80;;;25.00;43.70;;;;;;5002558;28;20022;-47
2022/07/13 10:19:59;;;;;;;2.65;0.98;;;24.90;43.40;;;;;;5001399;28;20700;-49
2022/07/13 10:22:29;;;;;;;1.95;0.80;;;25.00;42.80;;;;;;5014033;28;20406;-49
2022/07/13 10:24:57;;;;;;;2.42;1.00;;;25.00;41.90;;;;;;5001528;28;20354;-47
2022/07/13 10:27:34;;;;;;;3.10;1.10;;;25.00;41.60;;;;;;5002261;28;20032;-48
2022/07/13 10:30:07;;;;;;;1.95;0.90;;;25.10;39.40;;;;;;5002748;28;20041;-49
2022/07/13 10:32:38;;;;;;;5.45;1.60;;;25.10;41.50;;;;;;5002409;28;20046;-49
2022/07/13 10:35:09;;;;;;;3.58;0.90;;;25.10;43.30;;;;;;5002644;28;20073;-47
2022/07/13 10:37:57;;;;;;;1.95;0.82;;;25.10;39.60;;;;;;5002223;28;20285;-48
2022/07/13 10:40:23;;;;;;;1.98;1.00;;;25.20;39.70;;;;;;4999366;28;20030;-47
2022/07/13 10:42:56;;;;;;;2.47;0.98;;;25.20;41.00;;;;;;5002270;28;20076;-48
2022/07/13 10:45:32;;;;;;;2.22;1.27;;;25.20;41.30;;;;;;5001258;28;20022;-49
2022/07/13 10:47:58;;;;;;;7.70;5.43;;;25.30;41.10;;;;;;4999742;28;20029;-48
2022/07/13 10:50:26;;;;;;;6.47;3.30;;;25.30;41.60;;;;;;5001870;28;20026;-48
2022/07/13 10:52:52;;;;;;;2.42;1.23;;;25.30;40.30;;;;;;5022422;28;20029;-48
2022/07/13 10:55:27;;;;;;;1.95;1.00;;;25.30;37.50;;;;;;4999837;28;20542;-47
2022/07/13 10:57:53;;;;;;;3.10;1.40;;;25.30;38.80;;;;;;5001000;28;20038;-47
2022/07/13 11:00:35;;;;;;;4.93;2.40;;;25.40;39.20;;;;;;5001874;28;20776;-48
2022/07/13 11:03:06;;;;;;;4.95;2.17;;;25.40;39.00;;;;;;5000004;28;20100;-47
2022/07/13 11:05:35;;;;;;;3.38;1.60;;;25.40;38.40;;;;;;4999930;28;20096;-47
2022/07/13 11:08:14;;;;;;;3.70;1.88;;;25.50;36.60;;;;;;5001857;28;20128;-53
2022/07/13 11:10:40;;;;;;;6.80;4.10;;;25.50;37.90;;;;;;4998386;28;20511;-49
2022/07/13 11:13:12;;;;;;;5.22;2.92;;;25.50;40.30;;;;;;5002367;28;20036;-48
2022/07/13 11:15:54;;;;;;;5.00;2.55;;;25.50;39.50;;;;;;5005056;28;20063;-49
2022/07/13 11:18:32;;;;;;;4.68;2.33;;;25.60;38.80;;;;;;5005285;28;20092;-47
2022/07/13 11:21:00;;;;;;;6.07;2.75;;;25.60;37.70;;;;;;5006276;28;20017;-49
2022/07/13 11:26:33;;;;;;;4.53;2.20;;;25.60;39.40;;;;;;5001034;28;20022;-48
2022/07/13 11:29:25;;;;;;;5.60;2.30;;;25.60;40.10;;;;;;5004500;28;20583;-49
2022/07/13 11:31:55;;;;;;;2.78;1.17;;;25.60;40.40;;;;;;4998972;28;20053;-48
2022/07/13 11:34:22;;;;;;;2.33;0.85;;;25.60;36.40;;;;;;4999702;28;20837;-48
2022/07/13 11:36:48;;;;;;;2.47;1.17;;;25.70;35.50;;;;;;5002461;28;20022;-47
2022/07/13 11:39:27;;;;;;;4.07;1.67;;;25.70;38.60;;;;;;5002354;28;20492;-49
2022/07/13 11:41:54;;;;;;;4.13;2.10;;;25.70;39.30;;;;;;5003495;28;20026;-49
2022/07/13 11:44:22;;;;;;;1.92;0.90;;;25.70;38.20;;;;;;5003807;28;20109;-48
2022/07/13 11:46:49;;;;;;;2.42;1.00;;;25.70;35.20;;;;;;5002085;28;21611;-49
2022/07/13 11:49:14;;;;;;;2.95;0.95;;;25.80;35.60;;;;;;5000674;28;20033;-48
2022/07/13 11:51:44;;;;;;;2.40;0.80;;;25.80;37.00;;;;;;5004199;28;20032;-48
2022/07/13 11:54:15;;;;;;;1.10;0.47;;;25.80;36.00;;;;;;5002382;28;20382;-47
2022/07/13 11:56:56;;;;;;;0.50;0.40;;;25.90;33.70;;;;;;5002105;28;20596;-48
2022/07/13 11:59:42;;;;;;;2.08;0.75;;;26.00;35.30;;;;;;5003443;28;20109;-49
2022/07/13 12:02:10;;;;;;;2.05;0.90;;;26.00;36.30;;;;;;5003911;28;20034;-48
2022/07/13 12:04:40;;;;;;;1.77;0.80;;;26.00;37.10;;;;;;5004228;28;20030;-49
2022/07/13 12:07:17;;;;;;;1.80;0.57;;;26.00;36.90;;;;;;5003126;28;20022;-49
2022/07/13 12:09:57;;;;;;;2.38;0.63;;;26.00;36.10;;;;;;5001671;28;20100;-47
2022/07/13 12:12:25;;;;;;;1.63;0.60;;;26.00;34.40;;;;;;5000687;28;20076;-48
2022/07/13 12:14:52;;;;;;;1.20;0.43;;;26.10;35.90;;;;;;5003255;28;20088;-47
2022/07/13 12:17:19;;;;;;;1.58;0.50;;;26.10;34.20;;;;;;4998022;28;20137;-48
2022/07/13 12:19:44;;;;;;;1.42;0.60;;;26.10;35.40;;;;;;5002233;28;20021;-48
2022/07/13 12:22:10;;;;;;;1.67;0.60;;;26.10;36.50;;;;;;5003023;28;20065;-48
2022/07/13 12:24:41;;;;;;;1.08;0.50;;;26.10;36.80;;;;;;5000880;28;20022;-49
2022/07/13 12:27:07;;;;;;;1.88;0.73;;;26.10;35.90;;;;;;5000867;28;20546;-49
2022/07/13 12:29:33;;;;;;;2.72;1.00;;;26.20;37.80;;;;;;5001528;28;20056;-48
2022/07/13 12:32:00;;;;;;;3.38;0.73;;;26.20;38.10;;;;;;5000303;28;20109;-50
2022/07/13 12:34:26;;;;;;;2.83;0.60;;;26.10;34.00;;;;;;5003672;28;21313;-47
2022/07/13 12:36:52;;;;;;;1.80;0.70;;;26.10;34.80;;;;;;5004045;28;20018;-48
2022/07/13 12:39:40;;;;;;;1.50;0.80;;;26.20;35.50;;;;;;5003177;28;20049;-47
2022/07/13 12:42:07;;;;;;;1.52;0.40;;;26.30;32.50;;;;;;5003629;28;20593;-48
2022/07/13 12:44:35;;;;;;;1.08;0.40;;;26.40;32.60;;;;;;5003230;28;20056;-47
2022/07/13 12:47:01;;;;;;;1.30;0.40;;;26.40;32.30;;;;;;5002519;28;20088;-49
2022/07/13 12:49:28;;;;;;;1.27;0.60;;;26.50;32.50;;;;;;5003506;28;20035;-47
2022/07/13 12:51:54;;;;;;;1.67;0.45;;;26.50;31.30;;;;;;5003945;28;20022;-48
2022/07/13 12:54:50;;;;;;;2.17;0.70;;;26.60;32.10;;;;;;5002583;28;20042;-47
2022/07/13 12:57:21;;;;;;;2.05;0.45;;;26.60;32.60;;;;;;5014851;28;20448;-48
2022/07/13 13:00:21;;;;;;;1.50;0.50;;;26.60;34.20;;;;;;5022869;28;20581;-47